Time;durP1;ratioP1;P1;durP2;ratioP2;P2;SDS_P1;SDS_P2;PMS_P1;PMS_P2;Temp;Humidity;BMP_temperature;BMP_pressure;BME280_temperature;BME280_humidity;BME280_pressure;Samples;Min_cycle;Max_cycle;Signal;HPM_P1;HPM_P2
2023/06/16 00:08:57;;;;;;;;;;;15.80;99.90;;;;;;20826452;28;19924;-72
2023/06/16 00:18:59;;;;;;;;;;;16.50;99.90;;;;;;20826420;28;19919;-72
2023/06/16 00:29:01;;;;;;;;;;;16.00;99.90;;;;;;20825386;28;19923;-72
2023/06/16 00:39:02;;;;;;;;;;;15.80;99.90;;;;;;20819924;28;19913;-73
2023/06/16 00:49:06;;;;;;;;;;;15.80;99.90;;;;;;20824874;28;19955;-73
2023/06/16 00:59:06;;;;;;;;;;;15.50;99.90;;;;;;20838242;28;19914;-73
2023/06/16 01:09:12;;;;;;;;;;;15.20;99.90;;;;;;20840100;28;20571;-73
2023/06/16 01:19:17;;;;;;;;;;;14.80;99.90;;;;;;20839211;28;19913;-73
2023/06/16 01:29:21;;;;;;;;;;;15.00;99.90;;;;;;20848635;28;20402;-73
2023/06/16 01:39:22;;;;;;;;;;;15.30;99.90;;;;;;20838019;28;19913;-73
2023/06/16 01:49:23;;;;;;;;;;;15.30;99.90;;;;;;20836455;28;20088;-73
2023/06/16 01:59:24;;;;;;;;;;;15.10;99.90;;;;;;20836001;28;20023;-74
2023/06/16 02:09:25;;;;;;;;;;;14.80;99.90;;;;;;20834382;28;19917;-73
2023/06/16 02:19:28;;;;;;;;;;;14.90;99.90;;;;;;20834721;28;19917;-72
2023/06/16 02:29:29;;;;;;;;;;;14.50;99.90;;;;;;20833617;28;19960;-73
2023/06/16 02:39:30;;;;;;;;;;;14.30;99.90;;;;;;20831769;28;19913;-73
2023/06/16 02:49:31;;;;;;;;;;;13.70;99.90;;;;;;20831047;28;19917;-73
2023/06/16 02:59:33;;;;;;;;;;;13.70;99.90;;;;;;20828854;28;19932;-72
2023/06/16 03:09:34;;;;;;;;;;;13.40;99.90;;;;;;20933718;23;19936;-72
2023/06/16 03:19:40;;;;;;;;;;;13.10;99.90;;;;;;20996537;28;20209;-72
2023/06/16 03:29:42;;;;;;;;;;;13.00;99.90;;;;;;20991149;28;20271;-72
2023/06/16 03:39:43;;;;;;;;;;;12.70;99.90;;;;;;20916710;28;20078;-72
2023/06/16 03:49:44;;;;;;;;;;;12.60;99.90;;;;;;20919821;28;20062;-72
2023/06/16 03:59:45;;;;;;;;;;;12.50;99.90;;;;;;20920598;28;19948;-72
2023/06/16 04:09:46;;;;;;;;;;;12.40;99.90;;;;;;20880322;28;19917;-72
2023/06/16 04:19:47;;;;;;;;;;;12.30;99.90;;;;;;20897466;28;19913;-73
2023/06/16 04:29:49;;;;;;;;;;;12.20;99.90;;;;;;20914026;28;19956;-72
2023/06/16 04:39:51;;;;;;;;;;;12.00;99.90;;;;;;20928792;28;19913;-72
2023/06/16 04:49:56;;;;;;;;;;;12.60;99.90;;;;;;20942342;28;20390;-72
2023/06/16 04:59:57;;;;;;;;;;;13.20;99.90;;;;;;20936940;28;19913;-73
2023/06/16 05:09:57;;;;;;;;;;;13.80;99.90;;;;;;20928714;28;20023;-73
2023/06/16 05:19:58;;;;;;;;;;;14.10;99.90;;;;;;20934032;28;19999;-73
2023/06/16 05:29:59;;;;;;;;;;;14.40;99.90;;;;;;20915433;28;19923;-73
2023/06/16 05:40:00;;;;;;;;;;;14.80;99.90;;;;;;20860440;28;19913;-73
2023/06/16 05:50:02;;;;;;;;;;;14.80;99.90;;;;;;20845218;28;19917;-72
2023/06/16 06:00:05;;;;;;;;;;;15.10;99.90;;;;;;20846315;28;19917;-73
2023/06/16 06:10:13;;;;;;;;;;;15.80;99.90;;;;;;20831460;28;19983;-72
2023/06/16 06:20:15;;;;;;;;;;;16.60;99.90;;;;;;20829134;28;20355;-73
2023/06/16 06:30:15;;;;;;;;;;;17.20;99.90;;;;;;20827313;28;19952;-72
2023/06/16 06:40:16;;;;;;;;;;;18.00;99.90;;;;;;20828192;28;19917;-73
2023/06/16 06:50:17;;;;;;;;;;;18.60;99.90;;;;;;20832895;28;19924;-73
2023/06/16 07:00:18;;;;;;;;;;;19.20;99.90;;;;;;20826864;28;20386;-73
2023/06/16 07:10:18;;;;;;;;;;;19.40;99.90;;;;;;20826135;28;19949;-71
2023/06/16 07:20:19;;;;;;;;;;;20.20;99.90;;;;;;20825105;28;20386;-73
2023/06/16 07:30:20;;;;;;;;;;;20.10;99.90;;;;;;20824555;28;19959;-72
2023/06/16 07:40:21;;;;;;;;;;;21.00;99.90;;;;;;20823275;28;20379;-73
2023/06/16 07:50:21;;;;;;;;;;;21.90;99.90;;;;;;20821654;28;19925;-73
2023/06/16 08:00:22;;;;;;;;;;;22.20;99.90;;;;;;20821673;28;19932;-73
2023/06/16 08:10:23;;;;;;;;;;;22.60;99.90;;;;;;20832468;28;20003;-73
2023/06/16 08:20:25;;;;;;;;;;;22.60;99.90;;;;;;20821209;28;20402;-72
2023/06/16 08:30:26;;;;;;;;;;;22.90;99.90;;;;;;20820542;28;20070;-73
2023/06/16 08:40:26;;;;;;;;;;;23.50;99.90;;;;;;20823055;28;19913;-73
2023/06/16 08:50:27;;;;;;;;;;;23.70;99.90;;;;;;20818004;28;19917;-74
2023/06/16 09:00:30;;;;;;;;;;;23.90;98.20;;;;;;20819553;28;19913;-73
2023/06/16 09:10:31;;;;;;;;;;;24.10;96.70;;;;;;20797836;23;19936;-75
2023/06/16 09:20:31;;;;;;;;;;;24.20;95.50;;;;;;20693340;28;20271;-74
2023/06/16 09:30:33;;;;;;;;;;;23.60;95.40;;;;;;20671925;28;19921;-74
2023/06/16 09:40:34;;;;;;;;;;;23.10;96.80;;;;;;20750061;28;19920;-74
2023/06/16 09:50:36;;;;;;;;;;;23.20;95.70;;;;;;20751608;28;19922;-74
2023/06/16 10:00:40;;;;;;;;;;;24.00;97.40;;;;;;20750651;28;19917;-75
2023/06/16 10:10:42;;;;;;;;;;;24.30;93.00;;;;;;20764753;28;19917;-74
2023/06/16 10:20:45;;;;;;;;;;;26.10;92.90;;;;;;20749253;28;19914;-75
2023/06/16 10:30:46;;;;;;;;;;;27.20;91.00;;;;;;20747966;28;19918;-75
2023/06/16 10:40:47;;;;;;;;;;;28.10;88.30;;;;;;20747502;28;20455;-75
2023/06/16 10:50:58;;;;;;;;;;;26.20;83.20;;;;;;20745423;28;19988;-75
2023/06/16 11:01:01;;;;;;;;;;;24.70;86.20;;;;;;20746017;28;20336;-74
2023/06/16 11:11:02;;;;;;;;;;;25.60;88.00;;;;;;20745246;28;19921;-74
2023/06/16 11:21:04;;;;;;;;;;;25.90;87.90;;;;;;20760012;28;20338;-74
2023/06/16 11:31:08;;;;;;;;;;;26.80;85.20;;;;;;20744030;28;19917;-74
2023/06/16 11:41:34;;;;;;;;;;;28.50;77.20;;;;;;20739249;28;19948;-74
2023/06/16 11:51:36;;;;;;;;;;;25.60;74.70;;;;;;20739577;28;19989;-74
2023/06/16 12:01:36;;;;;;;;;;;27.00;74.30;;;;;;20741985;28;19993;-74
2023/06/16 12:11:37;;;;;;;;;;;28.70;67.10;;;;;;20741427;28;19979;-74
2023/06/16 12:21:38;;;;;;;;;;;25.90;70.40;;;;;;20740937;28;20376;-74
2023/06/16 12:31:57;;;;;;;;;;;26.70;70.90;;;;;;20756049;28;20326;-73
2023/06/16 12:41:59;;;;;;;;;;;26.70;69.90;;;;;;20738963;28;20295;-74
2023/06/16 12:52:01;;;;;;;;;;;28.20;67.20;;;;;;20765263;28;19918;-75
2023/06/16 13:02:01;;;;;;;;;;;29.10;63.80;;;;;;20755470;28;19914;-74
2023/06/16 13:12:02;;;;;;;;;;;28.60;62.80;;;;;;20713567;28;19925;-74
2023/06/16 13:22:03;;;;;;;;;;;28.10;59.30;;;;;;20672946;28;19913;-74
2023/06/16 13:32:04;;;;;;;;;;;29.20;62.80;;;;;;20682076;28;19917;-74
2023/06/16 13:42:06;;;;;;;;;;;27.60;64.60;;;;;;20752392;28;20237;-75
2023/06/16 13:52:07;;;;;;;;;;;25.90;68.00;;;;;;20751813;28;19917;-74
2023/06/16 14:02:07;;;;;;;;;;;28.00;68.30;;;;;;20749781;28;20355;-75
2023/06/16 14:12:08;;;;;;;;;;;28.50;63.20;;;;;;20750080;28;20352;-75
2023/06/16 14:22:09;;;;;;;;;;;27.90;67.40;;;;;;20749714;28;19979;-75
2023/06/16 14:32:09;;;;;;;;;;;28.00;67.80;;;;;;20748454;28;19921;-74
2023/06/16 14:42:11;;;;;;;;;;;28.70;67.40;;;;;;20710620;28;20319;-74
2023/06/16 14:52:12;;;;;;;;;;;27.40;68.50;;;;;;20692031;28;20293;-74
2023/06/16 15:02:12;;;;;;;;;;;28.00;69.00;;;;;;20676774;28;19920;-75
2023/06/16 15:12:13;;;;;;;;;;;28.60;68.50;;;;;;20816680;23;20295;-73
2023/06/16 15:22:14;;;;;;;;;;;28.50;67.80;;;;;;20753566;28;19914;-73
2023/06/16 15:32:14;;;;;;;;;;;28.30;68.30;;;;;;20699954;28;19961;-72
2023/06/16 15:42:15;;;;;;;;;;;27.70;68.30;;;;;;20742185;28;19920;-73
2023/06/16 15:52:16;;;;;;;;;;;28.30;68.70;;;;;;20741169;28;19918;-72
2023/06/16 16:02:16;;;;;;;;;;;28.10;69.50;;;;;;20740745;28;20421;-72
2023/06/16 16:12:17;;;;;;;;;;;27.80;72.60;;;;;;20740107;28;19924;-72
2023/06/16 16:22:18;;;;;;;;;;;27.60;70.20;;;;;;20719554;28;19971;-73
2023/06/16 16:32:21;;;;;;;;;;;27.50;71.60;;;;;;20733961;28;20032;-73
2023/06/16 16:42:21;;;;;;;;;;;27.40;72.00;;;;;;20719423;28;19953;-73
2023/06/16 16:52:22;;;;;;;;;;;27.10;72.70;;;;;;20716882;28;19921;-73
2023/06/16 17:02:23;;;;;;;;;;;26.90;73.60;;;;;;20728207;28;19967;-74
2023/06/16 17:12:23;;;;;;;;;;;26.20;74.60;;;;;;20718671;28;19997;-73
2023/06/16 17:22:24;;;;;;;;;;;26.30;75.80;;;;;;20725692;28;19914;-73
2023/06/16 17:32:24;;;;;;;;;;;26.20;76.90;;;;;;20737973;28;19922;-74
2023/06/16 17:42:25;;;;;;;;;;;26.50;76.50;;;;;;20751518;28;20390;-74
2023/06/16 17:52:26;;;;;;;;;;;26.70;76.80;;;;;;20750722;28;19968;-74
2023/06/16 18:02:27;;;;;;;;;;;26.30;82.00;;;;;;20750052;28;19920;-74
2023/06/16 18:12:27;;;;;;;;;;;26.60;85.50;;;;;;20749122;28;20032;-74
2023/06/16 18:22:28;;;;;;;;;;;27.60;89.80;;;;;;20748839;28;20287;-74
2023/06/16 18:32:29;;;;;;;;;;;27.40;91.40;;;;;;20747833;28;19960;-74
2023/06/16 18:42:29;;;;;;;;;;;27.40;91.00;;;;;;20747252;28;19914;-74
2023/06/16 18:52:30;;;;;;;;;;;24.30;93.40;;;;;;20745903;28;19925;-74
2023/06/16 19:02:31;;;;;;;;;;;23.00;98.30;;;;;;20726516;28;20019;-74
2023/06/16 19:12:32;;;;;;;;;;;22.20;99.90;;;;;;20670921;28;19918;-75
2023/06/16 19:22:33;;;;;;;;;;;21.40;99.20;;;;;;20686031;28;19945;-75
2023/06/16 19:32:34;;;;;;;;;;;21.00;99.80;;;;;;20679484;28;19975;-75
2023/06/16 19:42:34;;;;;;;;;;;20.50;99.90;;;;;;20746083;28;20446;-74
2023/06/16 19:52:35;;;;;;;;;;;19.90;99.90;;;;;;20714043;28;19968;-75
2023/06/16 20:02:38;;;;;;;;;;;19.60;99.90;;;;;;20708984;28;20396;-72
2023/06/16 20:12:38;;;;;;;;;;;19.10;99.90;;;;;;20682841;28;20308;-72
2023/06/16 20:22:39;;;;;;;;;;;18.10;99.90;;;;;;20663005;28;19914;-72
2023/06/16 20:32:41;;;;;;;;;;;17.80;99.90;;;;;;20676864;28;20016;-72
2023/06/16 20:42:47;;;;;;;;;;;17.90;99.90;;;;;;20735542;28;20264;-72
2023/06/16 20:52:49;;;;;;;;;;;17.80;99.90;;;;;;20710661;28;19925;-73
2023/06/16 21:02:52;;;;;;;;;;;17.80;99.90;;;;;;20726952;28;19913;-72
2023/06/16 21:12:52;;;;;;;;;;;17.50;99.90;;;;;;20759593;23;19933;-75
2023/06/16 21:22:53;;;;;;;;;;;17.30;99.90;;;;;;20756614;28;20382;-75
2023/06/16 21:32:56;;;;;;;;;;;16.90;99.90;;;;;;20755844;28;19928;-74
2023/06/16 21:42:57;;;;;;;;;;;16.60;99.90;;;;;;20755248;28;19913;-75
2023/06/16 21:52:57;;;;;;;;;;;16.50;99.90;;;;;;20754340;28;19924;-75
2023/06/16 22:02:58;;;;;;;;;;;16.10;99.90;;;;;;20753513;28;20370;-75
2023/06/16 22:12:59;;;;;;;;;;;16.20;99.90;;;;;;20752799;28;19917;-75
2023/06/16 22:22:59;;;;;;;;;;;16.20;99.90;;;;;;20751140;28;19913;-76
2023/06/16 22:33:00;;;;;;;;;;;16.20;99.90;;;;;;20751006;28;20020;-76
2023/06/16 22:43:01;;;;;;;;;;;16.00;99.90;;;;;;20750537;28;19968;-75
2023/06/16 22:53:01;;;;;;;;;;;15.60;99.90;;;;;;20749518;28;19980;-75
2023/06/16 23:03:02;;;;;;;;;;;15.20;99.90;;;;;;20764438;28;19921;-75
2023/06/16 23:13:03;;;;;;;;;;;15.10;99.90;;;;;;20748348;28;20299;-75
2023/06/16 23:23:03;;;;;;;;;;;15.20;99.90;;;;;;20747885;28;19913;-75
2023/06/16 23:33:05;;;;;;;;;;;15.20;99.90;;;;;;20746995;28;19924;-76
2023/06/16 23:43:06;;;;;;;;;;;15.00;99.90;;;;;;20746244;28;19914;-76
2023/06/16 23:53:07;;;;;;;;;;;15.30;99.90;;;;;;20746654;28;19968;-75
